Weather at Kristiansund Heliport, Hospital

Public forecast

Using degrees Celsius for public forecast. Weather courtesy of forecast.io.

Closest aviation weather report (METAR) to Kristiansund Heliport, Hospital

Closest report is Kristiansund Airport, Kvernberget, 2.8 nm (5.1 km) E.

2024/05/30 02:50 (retrieved 37 minutes ago)

ENKB 300250Z AUTO 04003KT 9999 FEW032/// BKN087/// 12/09 Q1009 RMK WIND 745FT 05005KT

Closest aviation forecast (TAF) to Kristiansund Heliport, Hospital

Forecast is more than 12 hours old.

Closest forecast is Salluit Airport, 2,137.6 nm (3,958.9 km) NW.

2024/05/29 14:00 (retrieved 13 hours ago)

TAF CYZG 291340Z 2914/2921 23020KT P6SM FEW012 SCT070 BKN100 TEMPO 2914/2918 BKN012 RMK NXT FCST BY 301400Z